Adco, Washington
Current Conditions -  °F | °C
As of 12:29 AM on Saturday 01 Nov 2014 (Local Time) from KEPH Reporting Station
Haze Haze  
Wind Chill: 48°   Ceiling: 11000
Heat Index: 48°   Visibility: 4mi
Dew Point: 47°   Wind: 3mph
Humidity: 96%   Direction: 30°NNE
Pressure: 29.77"   Gusts: NA
Location:  47.4314°N, 119.485°W
Report Text: KEPH 010729Z AUTO 03003KT 4SM BR SCT003 OVC110 09/08 A2977 RMK AO2 T00890083
Loading
Personal Weather Stations






























Interactive Weather Map
Tropical Storm Tracking
New forecast layout! Learn more

10-Day Weather Forecast

Advertisements
Track Severe Weather on mobile